Time;durP1;ratioP1;P1;durP2;ratioP2;P2;SDS_P1;SDS_P2;PMS_P1;PMS_P2;Temp;Humidity;BMP_temperature;BMP_pressure;BME280_temperature;BME280_humidity;BME280_pressure;Samples;Min_cycle;Max_cycle;Signal;HPM_P1;HPM_P2
2022/06/24 00:02:21;;;;;;;5.63;5.03;;;;;;;17.90;64.61;99920.50;5113127;28;20356;-48
2022/06/24 00:04:52;;;;;;;9.50;6.97;;;;;;;17.77;65.29;99915.44;5113397;28;20024;-49
2022/06/24 00:07:18;;;;;;;7.78;5.50;;;;;;;17.54;64.93;99883.97;5112918;28;20022;-47
2022/06/24 00:09:44;;;;;;;8.90;8.02;;;;;;;17.74;66.23;99924.13;5113740;28;20143;-47
2022/06/24 00:12:13;;;;;;;9.60;7.53;;;;;;;17.74;65.09;99927.66;5112369;28;20039;-51
2022/06/24 00:14:41;;;;;;;11.00;8.27;;;;;;;17.77;64.97;99920.88;5113678;28;20566;-48
2022/06/24 00:17:09;;;;;;;10.77;9.32;;;;;;;17.66;64.95;99908.28;5112143;28;20468;-49
2022/06/24 00:19:51;;;;;;;9.23;8.07;;;;;;;17.66;66.21;99922.66;5114418;28;20386;-50
2022/06/24 00:22:17;;;;;;;13.52;8.38;;;;;;;17.68;65.74;99917.81;5114231;28;20359;-48
2022/06/24 00:24:43;;;;;;;9.57;8.60;;;;;;;17.61;65.09;99907.16;5114038;28;20027;-50
2022/06/24 00:27:19;;;;;;;16.05;9.90;;;;;;;17.58;67.36;99915.78;5113802;28;20390;-48
2022/06/24 00:29:46;;;;;;;15.48;9.85;;;;;;;17.49;67.02;99921.91;5113794;28;20035;-47
2022/06/24 00:32:12;;;;;;;13.25;9.07;;;;;;;17.43;66.86;99915.59;5113660;28;20031;-48
2022/06/24 00:34:39;;;;;;;12.18;9.55;;;;;;;17.46;66.32;99917.84;5113037;28;20053;-49
2022/06/24 00:37:24;;;;;;;12.30;9.40;;;;;;;17.50;66.46;99924.38;5111633;28;20067;-47
2022/06/24 00:39:50;;;;;;;8.80;7.37;;;;;;;17.48;65.69;99920.31;5111748;28;20027;-47
2022/06/24 00:42:18;;;;;;;11.35;8.10;;;;;;;17.43;65.95;99918.31;5111725;28;20122;-47
2022/06/24 00:44:50;;;;;;;13.93;8.52;;;;;;;17.33;67.08;99919.03;5111625;28;20023;-48
2022/06/24 00:47:16;;;;;;;11.32;8.55;;;;;;;16.94;66.57;99861.25;5111747;28;20083;-47
2022/06/24 00:49:44;;;;;;;14.02;8.30;;;;;;;17.24;67.46;99915.09;5112877;28;20032;-46
2022/06/24 00:52:11;;;;;;;7.40;6.18;;;;;;;17.25;66.21;99889.59;5111773;28;20383;-48
2022/06/24 00:54:37;;;;;;;9.05;7.95;;;;;;;17.34;66.09;99890.78;5111675;28;20024;-48
2022/06/24 00:57:03;;;;;;;10.05;9.10;;;;;;;17.36;67.15;99901.41;5112822;28;20119;-50
2022/06/24 00:59:34;;;;;;;16.83;8.85;;;;;;;17.27;67.11;99883.91;5112773;28;20034;-49
2022/06/24 01:02:03;;;;;;;13.35;8.43;;;;;;;17.08;67.08;99862.50;5113182;28;20032;-48
2022/06/24 01:04:31;;;;;;;11.27;8.95;;;;;;;17.05;67.77;99892.03;5113282;28;20023;-48
2022/06/24 01:06:58;;;;;;;13.07;9.40;;;;;;;16.90;67.65;99877.22;5111826;28;20064;-48
2022/06/24 01:09:23;;;;;;;9.05;7.80;;;;;;;16.95;67.35;99884.59;5112991;28;20047;-48
2022/06/24 01:11:49;;;;;;;12.10;7.75;;;;;;;16.78;67.84;99879.97;5111657;28;20032;-48
2022/06/24 01:14:15;;;;;;;9.93;7.38;;;;;;;16.70;67.80;99855.19;5112952;28;20031;-49
2022/06/24 01:16:41;;;;;;;11.32;8.18;;;;;;;16.72;67.90;99869.31;5094029;28;20039;-48
2022/06/24 01:19:10;;;;;;;11.60;7.75;;;;;;;16.77;67.15;99872.09;5114931;28;20024;-47
2022/06/24 01:21:39;;;;;;;7.47;6.60;;;;;;;16.63;67.51;99864.31;5116329;28;20032;-50
2022/06/24 01:24:10;;;;;;;8.52;7.30;;;;;;;16.71;67.42;99868.47;5115488;28;20043;-48
2022/06/24 01:26:37;;;;;;;8.77;7.43;;;;;;;16.67;66.50;99855.69;5116367;27;20024;-47
2022/06/24 01:29:04;;;;;;;7.85;6.20;;;;;;;16.61;67.37;99868.34;5115295;28;20058;-49
2022/06/24 01:31:29;;;;;;;9.80;6.82;;;;;;;16.54;67.23;99865.78;5117189;28;20055;-48
2022/06/24 01:33:56;;;;;;;8.13;6.32;;;;;;;16.41;67.96;99844.47;5117982;28;20027;-49
2022/06/24 01:36:22;;;;;;;18.50;6.40;;;;;;;16.54;66.63;99860.38;5117161;28;20365;-48
2022/06/24 01:38:49;;;;;;;10.63;5.88;;;;;;;16.49;67.03;99865.72;5116364;28;20030;-48
2022/06/24 01:41:15;;;;;;;9.20;6.07;;;;;;;16.32;67.53;99862.19;5098454;28;20035;-48
2022/06/24 01:43:40;;;;;;;12.55;6.90;;;;;;;16.30;67.27;99857.00;5114626;28;20027;-53
2022/06/24 01:46:06;;;;;;;9.73;6.55;;;;;;;16.24;67.78;99858.00;5116484;27;20023;-48
2022/06/24 01:48:32;;;;;;;9.85;6.88;;;;;;;16.19;67.80;99852.50;5115178;28;20035;-50
2022/06/24 01:50:59;;;;;;;11.32;7.93;;;;;;;16.12;68.13;99849.13;5115574;28;20023;-49
2022/06/24 01:53:25;;;;;;;12.32;7.10;;;;;;;16.00;68.47;99825.66;5114404;28;20023;-51
2022/06/24 01:55:50;;;;;;;11.65;6.85;;;;;;;16.12;67.53;99841.00;5115125;28;20027;-48
2022/06/24 01:58:16;;;;;;;12.60;6.88;;;;;;;16.05;68.00;99843.88;5114087;28;20059;-47
2022/06/24 02:00:42;;;;;;;22.55;7.00;;;;;;;15.84;68.25;99834.56;5115353;28;20036;-48
2022/06/24 02:03:08;;;;;;;13.02;6.70;;;;;;;15.92;67.77;99849.63;5114001;28;20028;-48
2022/06/24 02:05:34;;;;;;;14.30;7.18;;;;;;;15.83;68.53;99854.59;5115422;27;20027;-48
2022/06/24 02:07:59;;;;;;;12.43;6.32;;;;;;;15.78;67.79;99847.19;5114021;28;20110;-48
2022/06/24 02:13:29;;;;;;;14.75;7.10;;;;;;;15.57;69.04;99832.44;5100064;28;20046;-51
2022/06/24 02:16:01;;;;;;;15.02;7.10;;;;;;;15.42;69.28;99818.63;5114990;28;20031;-49
2022/06/24 02:18:28;;;;;;;8.32;6.32;;;;;;;15.54;68.80;99826.69;5116742;27;20477;-50
2022/06/24 02:20:55;;;;;;;14.20;6.57;;;;;;;15.50;68.92;99826.34;5119660;28;20023;-49
2022/06/24 02:23:21;;;;;;;14.20;6.68;;;;;;;15.43;69.72;99826.53;5102197;28;20353;-49
2022/06/24 02:25:49;;;;;;;12.65;6.88;;;;;;;15.36;69.66;99827.69;5119863;28;20039;-49
2022/06/24 02:28:15;;;;;;;12.13;6.93;;;;;;;15.28;69.92;99827.03;5116275;28;20035;-48
2022/06/24 02:30:42;;;;;;;15.80;7.03;;;;;;;15.28;69.98;99820.78;5115837;28;20031;-51
2022/06/24 02:33:09;;;;;;;14.15;7.45;;;;;;;15.29;69.83;99831.38;5114514;28;20114;-49
2022/06/24 02:35:35;;;;;;;15.50;6.82;;;;;;;15.21;69.85;99807.41;5115233;28;20096;-50
2022/06/24 02:38:01;;;;;;;11.20;7.47;;;;;;;15.22;70.25;99819.88;5115768;28;20088;-49
2022/06/24 02:43:16;;;;;;;20.60;7.60;;;;;;;15.17;70.19;99800.00;5114495;28;20036;-47
2022/06/24 02:45:44;;;;;;;14.82;6.72;;;;;;;15.27;69.24;99805.63;5115548;28;20453;-50
2022/06/24 02:48:11;;;;;;;15.02;7.18;;;;;;;15.19;69.63;99797.88;5097034;28;20365;-48
2022/06/24 02:50:41;;;;;;;12.90;8.32;;;;;;;15.20;69.96;99786.00;5115076;28;20031;-48
2022/06/24 02:53:07;;;;;;;9.80;7.55;;;;;;;15.11;69.73;99780.16;5115335;28;20052;-48
2022/06/24 02:55:33;;;;;;;16.65;10.35;;;;;;;15.02;70.54;99804.03;5114808;28;20028;-47
2022/06/24 02:57:59;;;;;;;15.95;9.45;;;;;;;15.00;70.54;99783.72;5115539;28;20429;-47
2022/06/24 03:00:25;;;;;;;22.30;11.02;;;;;;;15.08;70.08;99784.19;5114214;28;20099;-47
2022/06/24 03:02:50;;;;;;;18.27;10.05;;;;;;;15.25;69.39;99778.81;5098923;28;20027;-47
2022/06/24 03:05:16;;;;;;;12.23;9.82;;;;;;;15.24;69.69;99779.88;5116427;28;20063;-47
2022/06/24 03:07:42;;;;;;;21.98;11.68;;;;;;;15.12;70.72;99784.53;5113737;28;20039;-48
2022/06/24 03:10:09;;;;;;;20.02;12.02;;;;;;;14.99;70.31;99765.84;5114646;28;20048;-49
2022/06/24 03:12:35;;;;;;;19.02;12.93;;;;;;;14.94;70.55;99754.94;5114676;28;20024;-47
2022/06/24 03:15:00;;;;;;;26.13;15.32;;;;;;;15.09;70.53;99771.47;5112997;28;20026;-47
2022/06/24 03:17:26;;;;;;;25.95;14.38;;;;;;;15.09;70.58;99766.06;5112643;28;20028;-48
2022/06/24 03:19:52;;;;;;;20.45;14.55;;;;;;;15.06;70.64;99750.31;5112926;28;20488;-50
2022/06/24 03:22:18;;;;;;;22.83;15.25;;;;;;;15.17;70.45;99746.72;5114038;28;20031;-47
2022/06/24 03:24:44;;;;;;;24.25;14.15;;;;;;;15.19;69.98;99741.94;5113785;28;20357;-47
2022/06/24 03:27:09;;;;;;;20.98;13.57;;;;;;;15.11;70.18;99734.19;5113424;28;20024;-47
2022/06/24 03:29:35;;;;;;;23.05;15.13;;;;;;;15.09;70.94;99747.13;5113975;28;20043;-47
2022/06/24 03:32:01;;;;;;;21.58;15.73;;;;;;;15.08;70.93;99745.47;5113715;28;20031;-47
2022/06/24 03:34:26;;;;;;;24.10;15.30;;;;;;;14.85;72.17;99746.38;5113793;28;20115;-47
2022/06/24 03:36:52;;;;;;;27.48;17.63;;;;;;;14.83;72.71;99746.63;5113326;28;20476;-48
2022/06/24 03:39:18;;;;;;;29.13;17.85;;;;;;;14.72;73.35;99744.78;5113690;28;20049;-48
2022/06/24 03:41:43;;;;;;;28.40;17.90;;;;;;;14.78;73.36;99762.72;5113183;28;20074;-48
2022/06/24 03:44:09;;;;;;;30.13;17.45;;;;;;;14.96;72.29;99766.34;5113584;28;20512;-48
2022/06/24 03:46:35;;;;;;;31.13;17.30;;;;;;;14.94;72.44;99761.16;5113298;28;20031;-47
2022/06/24 03:49:01;;;;;;;31.60;16.35;;;;;;;14.89;72.76;99758.34;5113626;28;20023;-50
2022/06/24 03:51:26;;;;;;;34.72;18.10;;;;;;;15.02;72.50;99778.91;5113457;28;20409;-47
2022/06/24 03:53:52;;;;;;;24.75;15.85;;;;;;;15.01;72.32;99769.16;5112321;28;20540;-48
2022/06/24 03:56:18;;;;;;;25.25;16.35;;;;;;;15.10;71.85;99778.53;5111842;28;20046;-49
2022/06/24 03:58:44;;;;;;;35.20;18.40;;;;;;;14.99;72.77;99769.38;5113095;28;20431;-49
2022/06/24 04:01:09;;;;;;;30.55;18.30;;;;;;;15.06;72.39;99764.66;5113280;28;20032;-48
2022/06/24 04:03:35;;;;;;;30.27;19.33;;;;;;;15.21;72.40;99790.34;5113217;28;20034;-48
2022/06/24 04:06:01;;;;;;;30.75;17.85;;;;;;;15.32;71.56;99784.06;5111752;28;20086;-47
2022/06/24 04:08:26;;;;;;;37.42;19.15;;;;;;;15.32;72.07;99785.97;5113252;28;20039;-48
2022/06/24 04:10:52;;;;;;;33.65;18.77;;;;;;;15.39;71.95;99778.53;5113332;28;20043;-48
2022/06/24 04:13:18;;;;;;;31.77;18.48;;;;;;;15.36;71.75;99771.72;5111808;28;20472;-48
2022/06/24 04:15:46;;;;;;;30.58;17.75;;;;;;;15.35;71.04;99755.72;5113035;28;20126;-48
2022/06/24 04:18:12;;;;;;;32.92;16.98;;;;;;;15.42;71.72;99769.94;5111662;28;20055;-48
2022/06/24 04:20:38;;;;;;;32.15;17.08;;;;;;;15.46;71.39;99763.78;5111541;28;20031;-48
2022/06/24 04:23:04;;;;;;;36.03;18.38;;;;;;;15.57;71.37;99767.50;5111340;28;20090;-47
2022/06/24 04:25:30;;;;;;;27.17;17.42;;;;;;;15.64;70.51;99761.94;5112695;28;20020;-49
2022/06/24 04:27:55;;;;;;;32.65;18.25;;;;;;;15.55;71.50;99769.63;5112554;28;20043;-47
2022/06/24 04:30:21;;;;;;;29.15;17.75;;;;;;;15.52;71.96;99763.88;5112813;28;20471;-49
2022/06/24 04:32:47;;;;;;;30.83;16.98;;;;;;;15.52;71.73;99761.97;5112669;28;20388;-48
2022/06/24 04:35:13;;;;;;;29.55;18.55;;;;;;;15.57;71.38;99756.66;5112485;28;20067;-48
2022/06/24 04:37:40;;;;;;;23.17;16.80;;;;;;;15.67;71.24;99773.09;5112492;28;20036;-49
2022/06/24 04:40:09;;;;;;;30.88;16.67;;;;;;;15.70;71.13;99773.66;5113123;28;20027;-49
2022/06/24 04:42:35;;;;;;;32.28;18.15;;;;;;;15.54;72.33;99750.91;5113972;28;20495;-47
2022/06/24 04:45:01;;;;;;;26.60;17.33;;;;;;;15.50;72.80;99756.00;5113699;28;20039;-48
2022/06/24 04:47:26;;;;;;;29.98;16.98;;;;;;;15.65;71.99;99764.38;5113678;28;20410;-47
2022/06/24 04:49:52;;;;;;;19.55;14.98;;;;;;;15.71;71.15;99762.56;5113176;28;20061;-48
2022/06/24 04:52:18;;;;;;;19.67;14.73;;;;;;;15.72;71.42;99752.59;5114115;28;20436;-50
2022/06/24 04:54:44;;;;;;;24.60;16.52;;;;;;;15.60;71.99;99750.78;5116297;28;20493;-48
2022/06/24 04:57:11;;;;;;;24.70;16.52;;;;;;;15.48;72.04;99737.28;5116765;28;20089;-48
2022/06/24 04:59:37;;;;;;;22.83;14.23;;;;;;;15.71;72.07;99759.88;5116454;28;20432;-50
2022/06/24 05:02:03;;;;;;;21.02;13.05;;;;;;;15.73;70.96;99746.94;5115170;28;20317;-48
2022/06/24 05:04:29;;;;;;;26.73;15.27;;;;;;;15.75;72.14;99760.22;5115543;28;20023;-49
2022/06/24 05:06:55;;;;;;;26.88;15.02;;;;;;;15.54;71.79;99735.50;5115347;28;20106;-48
2022/06/24 05:09:21;;;;;;;18.77;13.38;;;;;;;15.81;71.62;99759.28;5116394;28;20055;-48
2022/06/24 05:11:48;;;;;;;21.33;11.68;;;;;;;15.79;70.67;99737.03;5115251;28;20125;-49
2022/06/24 05:14:14;;;;;;;21.70;13.57;;;;;;;15.96;70.82;99745.97;5116237;28;20123;-48
2022/06/24 05:16:42;;;;;;;22.10;14.15;;;;;;;15.98;70.85;99753.84;5116399;28;20364;-49
2022/06/24 05:19:09;;;;;;;20.15;13.70;;;;;;;15.92;71.46;99754.84;5097884;28;20034;-48
2022/06/24 05:21:35;;;;;;;18.55;12.00;;;;;;;15.92;70.96;99739.41;5116222;28;20383;-48
2022/06/24 05:24:01;;;;;;;22.67;13.50;;;;;;;15.76;71.57;99732.91;5114712;28;20087;-49
2022/06/24 05:26:27;;;;;;;21.05;12.18;;;;;;;15.97;70.72;99749.50;5114877;28;20023;-47
2022/06/24 05:28:53;;;;;;;17.77;13.93;;;;;;;16.03;70.80;99749.34;5115999;28;20035;-50
2022/06/24 05:31:19;;;;;;;24.77;11.75;;;;;;;16.04;70.71;99748.25;5115925;28;20027;-48
2022/06/24 05:33:44;;;;;;;23.23;12.55;;;;;;;16.12;70.21;99755.16;5116163;28;20036;-48
2022/06/24 05:36:10;;;;;;;26.60;13.20;;;;;;;16.05;70.53;99738.25;5115804;28;20024;-47
2022/06/24 05:38:36;;;;;;;18.90;12.82;;;;;;;16.16;70.33;99750.88;5115805;28;20392;-48
2022/06/24 05:41:03;;;;;;;26.23;12.50;;;;;;;16.19;69.98;99758.50;5115992;28;20031;-50
2022/06/24 05:43:29;;;;;;;20.38;14.13;;;;;;;16.10;70.31;99749.16;5114473;28;20028;-49
2022/06/24 05:45:55;;;;;;;20.17;13.43;;;;;;;16.08;70.17;99739.63;5115860;28;20077;-48
2022/06/24 05:48:21;;;;;;;17.83;12.30;;;;;;;16.07;70.69;99755.06;5115524;28;20032;-49
2022/06/24 05:50:46;;;;;;;23.05;12.63;;;;;;;16.07;70.51;99752.38;5115487;28;20063;-47
2022/06/24 05:56:00;;;;;;;18.00;14.15;;;;;;;15.98;71.06;99764.69;5114133;28;20471;-51
2022/06/24 05:58:27;;;;;;;21.42;13.32;;;;;;;15.93;71.51;99754.56;5115458;28;20031;-48
2022/06/24 06:00:55;;;;;;;22.73;12.65;;;;;;;16.03;70.81;99753.94;5115504;28;20028;-49
2022/06/24 06:03:22;;;;;;;19.52;13.00;;;;;;;16.14;70.67;99757.59;5117354;28;20020;-53
2022/06/24 06:05:48;;;;;;;16.92;12.15;;;;;;;16.04;70.87;99737.41;5120167;28;20023;-53
2022/06/24 06:08:15;;;;;;;21.02;11.80;;;;;;;16.24;70.11;99755.06;5120086;28;20062;-54
2022/06/24 06:10:43;;;;;;;16.70;11.60;;;;;;;16.33;69.69;99747.34;5117154;28;20051;-48
2022/06/24 06:13:10;;;;;;;14.75;10.63;;;;;;;16.39;69.42;99747.13;5115600;28;20374;-50
2022/06/24 06:15:36;;;;;;;11.38;9.43;;;;;;;16.49;69.25;99756.47;5113923;28;20122;-50
2022/06/24 06:18:02;;;;;;;21.00;11.45;;;;;;;16.56;68.69;99746.28;5114021;28;20157;-48
2022/06/24 06:20:28;;;;;;;12.43;9.82;;;;;;;16.73;67.96;99751.66;5113682;28;20024;-46
2022/06/24 06:22:54;;;;;;;11.05;6.88;;;;;;;16.86;67.29;99751.28;5115227;28;20031;-49
2022/06/24 06:25:19;;;;;;;18.20;9.95;;;;;;;17.00;66.86;99744.41;5114786;28;20142;-49
2022/06/24 06:27:45;;;;;;;17.98;9.15;;;;;;;17.15;65.69;99732.91;5115059;28;20024;-50
2022/06/24 06:30:11;;;;;;;15.60;9.88;;;;;;;17.14;66.46;99744.00;5114854;27;20492;-50
2022/06/24 06:32:37;;;;;;;14.70;9.63;;;;;;;17.11;66.20;99726.38;5114982;28;20061;-50
2022/06/24 06:35:04;;;;;;;11.27;7.93;;;;;;;17.40;65.36;99740.50;5115007;28;20473;-50
2022/06/24 06:37:29;;;;;;;10.98;7.13;;;;;;;17.43;65.19;99728.31;5114597;28;20027;-48
2022/06/24 06:39:56;;;;;;;8.82;6.60;;;;;;;17.44;65.52;99739.97;5113525;28;20045;-48
2022/06/24 06:42:22;;;;;;;12.43;7.18;;;;;;;17.51;65.51;99746.81;5113716;28;20042;-48
2022/06/24 06:44:48;;;;;;;14.60;7.22;;;;;;;17.72;64.69;99745.13;5114620;28;20028;-48
2022/06/24 06:47:14;;;;;;;7.53;6.40;;;;;;;17.67;64.18;99747.81;5114674;28;20024;-48
2022/06/24 06:49:40;;;;;;;7.50;5.68;;;;;;;17.50;64.57;99731.63;5114809;28;20042;-50
2022/06/24 06:52:06;;;;;;;9.55;6.20;;;;;;;17.44;64.83;99745.41;5114621;28;20528;-49
2022/06/24 06:54:31;;;;;;;7.28;5.28;;;;;;;17.54;64.36;99746.31;5114330;28;20035;-50
2022/06/24 06:56:57;;;;;;;10.52;5.65;;;;;;;17.63;63.71;99745.88;5114390;28;20361;-49
2022/06/24 06:59:23;;;;;;;5.40;4.90;;;;;;;17.79;63.70;99736.75;5112903;28;20081;-48
2022/06/24 07:01:49;;;;;;;7.00;4.45;;;;;;;17.98;62.83;99737.22;5113003;28;20023;-48
2022/06/24 07:04:15;;;;;;;6.85;4.78;;;;;;;18.02;62.18;99730.19;5114813;28;20031;-47
2022/06/24 07:06:41;;;;;;;6.82;4.13;;;;;;;18.22;61.35;99740.38;5113001;28;20059;-48
2022/06/24 07:09:07;;;;;;;8.35;4.78;;;;;;;18.18;60.66;99731.09;5114314;28;20085;-48
2022/06/24 07:11:33;;;;;;;8.02;4.18;;;;;;;18.16;60.84;99725.09;5113144;28;20043;-51
2022/06/24 07:13:59;;;;;;;6.97;4.30;;;;;;;18.42;60.16;99731.50;5114014;28;20027;-48
2022/06/24 07:16:25;;;;;;;7.40;4.70;;;;;;;18.65;59.94;99730.28;5113429;28;20102;-49
2022/06/24 07:18:50;;;;;;;6.15;4.63;;;;;;;18.65;59.49;99722.13;5113846;27;20072;-48
2022/06/24 07:21:16;;;;;;;7.97;4.38;;;;;;;18.43;59.60;99713.31;5113836;28;20039;-50
2022/06/24 07:23:42;;;;;;;7.07;5.05;;;;;;;18.28;60.03;99730.34;5113995;28;20019;-51
2022/06/24 07:26:08;;;;;;;6.57;4.40;;;;;;;18.44;59.65;99718.47;5112252;28;20079;-48
2022/06/24 07:28:34;;;;;;;8.32;5.13;;;;;;;18.55;58.52;99717.47;5113692;28;20032;-48
2022/06/24 07:31:00;;;;;;;8.27;4.55;;;;;;;18.56;58.65;99710.09;5113659;28;20067;-50
2022/06/24 07:33:26;;;;;;;6.40;5.13;;;;;;;18.66;59.19;99723.72;5113405;28;20081;-50
2022/06/24 07:35:52;;;;;;;8.25;4.90;;;;;;;18.64;58.77;99727.81;5113416;28;20157;-50
2022/06/24 07:38:18;;;;;;;6.15;4.72;;;;;;;18.61;58.73;99721.00;5112188;28;20357;-48
2022/06/24 07:40:44;;;;;;;5.47;4.60;;;;;;;18.56;59.12;99729.94;5112073;28;20042;-48
2022/06/24 07:43:10;;;;;;;6.05;4.85;;;;;;;18.61;59.26;99729.19;5112040;28;20388;-49
2022/06/24 07:45:36;;;;;;;9.20;4.68;;;;;;;18.54;58.95;99720.44;5112024;28;20028;-50
2022/06/24 07:48:02;;;;;;;4.80;4.07;;;;;;;18.68;59.09;99726.19;5112359;28;20028;-50
2022/06/24 07:50:28;;;;;;;6.60;5.30;;;;;;;18.80;58.29;99724.06;5113399;28;20035;-50
2022/06/24 07:52:54;;;;;;;6.82;3.60;;;;;;;19.08;57.93;99722.03;5112985;28;20361;-48
2022/06/24 07:58:05;;;;;;;10.32;4.95;;;;;;;19.31;56.87;99718.78;5111892;28;20039;-49
2022/06/24 08:00:31;;;;;;;7.35;4.32;;;;;;;19.32;56.82;99714.97;5111813;28;20388;-49
2022/06/24 08:02:57;;;;;;;4.68;3.95;;;;;;;19.29;56.82;99720.16;5112975;28;20119;-50
2022/06/24 08:05:23;;;;;;;10.88;5.18;;;;;;;19.11;57.28;99719.59;5113240;28;20031;-52
2022/06/24 08:07:48;;;;;;;8.95;4.68;;;;;;;19.21;56.89;99715.25;5113004;28;20061;-50
2022/06/24 08:10:14;;;;;;;8.15;4.85;;;;;;;19.45;56.35;99721.00;5112849;28;20071;-49
2022/06/24 08:12:40;;;;;;;5.43;3.63;;;;;;;19.75;55.56;99717.50;5113084;28;20030;-52
2022/06/24 08:15:06;;;;;;;6.82;3.50;;;;;;;19.88;55.03;99725.13;5095093;28;20023;-51
2022/06/24 08:17:32;;;;;;;5.13;3.00;;;;;;;19.68;55.32;99725.91;5113427;28;20360;-51
2022/06/24 08:19:58;;;;;;;4.65;3.72;;;;;;;19.40;55.95;99719.06;5094702;28;20121;-48
2022/06/24 08:22:23;;;;;;;6.50;3.63;;;;;;;19.38;56.57;99726.69;5113365;28;20376;-49
2022/06/24 08:24:49;;;;;;;6.13;3.83;;;;;;;19.68;55.62;99711.47;5111689;28;20132;-49
2022/06/24 08:27:15;;;;;;;5.00;3.40;;;;;;;19.99;54.88;99706.84;5112215;28;20119;-50
2022/06/24 08:29:41;;;;;;;9.27;3.90;;;;;;;20.38;53.55;99711.66;5113243;28;20106;-48
2022/06/24 08:32:07;;;;;;;6.05;3.10;;;;;;;20.82;53.27;99713.72;5113444;28;20023;-50
2022/06/24 08:34:33;;;;;;;4.57;3.35;;;;;;;20.74;53.35;99695.19;5111927;28;20087;-50
2022/06/24 08:36:58;;;;;;;6.97;3.35;;;;;;;22.12;50.67;99698.84;5112864;28;20031;-51
2022/06/24 08:39:24;;;;;;;7.30;4.10;;;;;;;22.12;49.05;99689.81;5113029;28;20375;-51
2022/06/24 08:41:56;;;;;;;3.53;3.22;;;;;;;23.12;47.53;99690.00;5111784;28;20031;-52
2022/06/24 08:44:22;;;;;;;3.00;2.70;;;;;;;24.03;46.09;99691.56;5112941;28;20023;-49
2022/06/24 08:46:49;;;;;;;8.52;3.95;;;;;;;24.10;43.64;99690.03;5112887;28;20059;-53
2022/06/24 08:49:15;;;;;;;3.42;2.88;;;;;;;24.33;44.69;99682.75;5111536;28;20038;-50
2022/06/24 08:51:42;;;;;;;6.78;2.75;;;;;;;23.31;46.32;99682.59;5111395;28;20479;-48
2022/06/24 08:54:10;;;;;;;5.53;2.75;;;;;;;23.11;46.77;99671.94;5112627;28;20391;-47
2022/06/24 08:56:36;;;;;;;6.43;3.13;;;;;;;23.11;46.42;99683.72;5112165;28;20475;-49
2022/06/24 08:59:02;;;;;;;7.28;2.60;;;;;;;23.22;47.22;99678.09;5112436;28;20028;-50
2022/06/24 09:01:28;;;;;;;3.75;2.58;;;;;;;23.26;45.99;99681.84;5112303;28;20098;-50
2022/06/24 09:03:54;;;;;;;5.10;3.00;;;;;;;23.04;46.92;99680.53;5112572;28;20112;-52
2022/06/24 09:06:20;;;;;;;5.70;3.28;;;;;;;23.60;44.15;99694.47;5112379;28;20498;-49
2022/06/24 09:08:49;;;;;;;2.85;2.60;;;;;;;22.89;46.63;99678.78;5110972;28;20047;-50
2022/06/24 09:11:15;;;;;;;6.05;3.38;;;;;;;23.66;44.65;99677.66;5111474;28;20016;-51
2022/06/24 09:13:44;;;;;;;5.57;2.90;;;;;;;24.75;41.80;99682.72;5094435;28;20027;-48
2022/06/24 09:16:11;;;;;;;5.43;2.90;;;;;;;25.54;40.48;99666.94;5112454;28;20060;-49
2022/06/24 09:18:38;;;;;;;4.22;2.88;;;;;;;26.32;39.57;99647.25;5112311;28;20035;-49
2022/06/24 09:21:03;;;;;;;4.28;2.25;;;;;;;26.92;39.09;99665.91;5111305;28;20375;-49
2022/06/24 09:23:29;;;;;;;3.97;2.63;;;;;;;27.14;36.18;99653.91;5112111;28;20038;-51
2022/06/24 09:26:00;;;;;;;4.50;2.08;;;;;;;27.53;37.46;99659.59;5110822;28;20039;-52
2022/06/24 09:28:29;;;;;;;4.63;2.20;;;;;;;27.36;36.23;99671.47;5111264;28;20035;-48
2022/06/24 09:31:03;;;;;;;5.13;2.08;;;;;;;27.64;35.15;99652.59;5111441;28;20456;-49
2022/06/24 09:33:36;;;;;;;3.10;2.03;;;;;;;28.24;33.63;99639.72;5113301;28;20031;-51
2022/06/24 09:36:07;;;;;;;7.30;1.85;;;;;;;28.37;34.49;99640.63;5113094;28;20032;-48
2022/06/24 09:38:56;;;;;;;3.97;1.70;;;;;;;28.86;31.88;99634.66;5096649;28;20122;-53
2022/06/24 09:41:27;;;;;;;4.25;2.13;;;;;;;29.34;33.16;99645.16;5118373;28;20028;-54
2022/06/24 09:44:01;;;;;;;2.90;1.90;;;;;;;29.67;33.10;99613.88;5116607;28;20031;-49
2022/06/24 09:46:27;;;;;;;4.38;2.15;;;;;;;30.17;29.83;99634.16;5117308;28;20460;-52
2022/06/24 09:49:02;;;;;;;5.30;1.58;;;;;;;29.98;30.79;99644.97;5115590;28;20118;-52
2022/06/24 09:51:28;;;;;;;3.38;1.30;;;;;;;28.85;33.93;99635.81;5116869;28;20051;-51
2022/06/24 09:53:55;;;;;;;3.55;1.45;;;;;;;28.04;33.33;99648.75;5121098;28;20057;-51
2022/06/24 09:56:22;;;;;;;2.65;1.58;;;;;;;28.05;33.46;99640.13;5120498;28;20059;-48
2022/06/24 10:01:37;;;;;;;2.45;1.20;;;;;;;29.37;31.43;99631.81;5117305;28;20046;-53
2022/06/24 10:04:05;;;;;;;2.70;1.10;;;;;;;27.51;34.40;99631.53;5115082;28;20035;-48
2022/06/24 10:06:35;;;;;;;5.00;1.40;;;;;;;27.80;33.71;99628.84;5116776;28;20027;-49
2022/06/24 10:09:04;;;;;;;2.30;1.02;;;;;;;27.41;34.34;99638.16;5116623;28;20047;-49
2022/06/24 10:11:34;;;;;;;1.67;0.90;;;;;;;26.84;35.39;99642.72;5116708;28;20126;-49
2022/06/24 10:14:01;;;;;;;2.85;1.05;;;;;;;26.77;35.86;99636.88;5116659;28;20051;-51
2022/06/24 10:16:27;;;;;;;1.92;1.10;;;;;;;26.89;34.97;99619.69;5115481;28;20084;-48
2022/06/24 10:18:55;;;;;;;2.55;1.30;;;;;;;26.77;34.88;99612.06;5117201;28;20031;-48
2022/06/24 10:21:21;;;;;;;2.22;1.33;;;;;;;26.89;35.60;99629.91;5116784;28;20035;-51
2022/06/24 10:23:52;;;;;;;3.10;1.50;;;;;;;26.67;35.70;99615.16;5116098;28;20031;-49
2022/06/24 10:26:29;;;;;;;3.42;1.05;;;;;;;25.80;36.16;99637.66;5116452;28;20039;-48
2022/06/24 10:29:16;;;;;;;4.22;1.20;;;;;;;25.67;37.39;99631.13;5116355;28;20094;-50
2022/06/24 10:31:54;;;;;;;3.65;1.40;;;;;;;27.72;33.48;99626.09;5115158;28;20143;-49
2022/06/24 10:34:33;;;;;;;3.97;1.05;;;;;;;29.08;31.55;99606.66;5116141;28;20502;-51
2022/06/24 10:37:26;;;;;;;2.20;1.40;;;;;;;28.53;31.60;99591.97;5116110;28;20028;-49
2022/06/24 10:39:55;;;;;;;3.42;1.50;;;;;;;29.70;31.36;99618.75;5114970;28;20034;-49
2022/06/24 10:42:22;;;;;;;2.15;1.38;;;;;;;30.66;29.01;99609.22;5116148;28;20111;-50
2022/06/24 10:44:59;;;;;;;1.67;1.55;;;;;;;30.55;28.45;99608.06;5116343;28;20040;-53
2022/06/24 10:47:28;;;;;;;4.05;1.17;;;;;;;29.58;30.33;99610.41;5116069;28;20455;-48
2022/06/24 10:50:03;;;;;;;1.10;1.10;;;;;;;27.88;32.87;99618.91;5115384;28;20032;-50
2022/06/24 10:53:00;;;;;;;1.85;1.52;;;;;;;26.97;34.71;99605.13;5116306;28;20153;-49
2022/06/24 10:55:28;;;;;;;3.80;1.52;;;;;;;26.15;35.92;99613.06;5112229;28;20135;-53
2022/06/24 10:57:57;;;;;;;3.83;1.85;;;;;;;25.44;36.77;99607.53;5111994;28;20038;-53
2022/06/24 11:00:27;;;;;;;4.32;1.98;;;;;;;25.20;37.76;99607.81;5111852;28;20169;-53
2022/06/24 11:03:12;;;;;;;5.47;1.70;;;;;;;24.85;38.54;99610.28;5112141;28;20032;-52
2022/06/24 11:05:41;;;;;;;3.85;2.00;;;;;;;25.00;38.15;99609.13;5111868;28;20027;-52
2022/06/24 11:08:24;;;;;;;1.80;1.70;;;;;;;24.97;38.23;99618.81;5109941;28;20028;-54
2022/06/24 11:10:51;;;;;;;3.42;1.45;;;;;;;25.23;37.91;99616.28;5110194;28;20054;-49
2022/06/24 11:13:18;;;;;;;3.97;2.20;;;;;;;25.55;36.83;99608.06;5109989;28;20444;-50
2022/06/24 11:15:49;;;;;;;4.00;1.70;;;;;;;25.53;37.15;99604.81;5111367;28;20388;-50
2022/06/24 11:18:17;;;;;;;4.30;1.83;;;;;;;25.66;36.56;99614.94;5111717;28;20427;-49
2022/06/24 11:20:47;;;;;;;3.25;1.48;;;;;;;25.47;37.76;99606.91;5111840;28;20059;-53
2022/06/24 11:23:14;;;;;;;1.77;1.58;;;;;;;25.33;37.45;99600.66;5110061;28;20305;-51
2022/06/24 11:25:45;;;;;;;2.08;1.60;;;;;;;25.14;37.82;99576.91;5109838;28;20466;-53
2022/06/24 11:28:22;;;;;;;2.25;1.50;;;;;;;24.96;37.82;99600.69;5111314;28;20055;-53
2022/06/24 11:30:49;;;;;;;2.95;1.73;;;;;;;24.67;39.07;99592.88;5110452;28;20027;-51
2022/06/24 11:33:15;;;;;;;7.40;1.63;;;;;;;24.41;39.90;99606.31;5110643;28;20353;-51
2022/06/24 11:35:41;;;;;;;3.30;1.83;;;;;;;24.18;40.19;99597.16;5111406;28;20032;-53
2022/06/24 11:38:08;;;;;;;3.10;2.10;;;;;;;23.94;40.86;99606.41;5092992;28;20027;-50
2022/06/24 11:40:35;;;;;;;2.03;1.77;;;;;;;23.99;40.95;99602.75;5111989;28;20118;-51
2022/06/24 11:43:07;;;;;;;2.63;1.73;;;;;;;24.01;41.12;99595.84;5111550;28;20176;-51